DW1590 Weather Reports


Display with metric or nautical units.
time (UTC)temp
F
wind
direction
speed
MPH
gust
MPH
rain 1hr
in
rain 24hr
in
rain mn
in
humidity
%
barometer
mb
20191015063135 48 334 0.0 0.0 0.00 0.00 0.00 83 1019.0
20191015061611 49 334 0.0 0.0 0.00 0.00 0.00 83 1018.9
20191015060123 49 334 0.0 0.0 0.00 0.00 0.00 82 1019.0
20191015054607 50 334 0.0 0.0 0.00 0.00 0.00 81 1018.7
20191015053148 50 334 0.0 0.0 0.00 0.00 0.00 81 1018.5
20191015051715 51 334 0.0 0.0 0.00 0.00 0.00 80 1018.5
20191015050019 51 334 0.0 0.0 0.00 0.00 0.00 79 1018.3
20191015041514 53 355 0.0 0.0 0.00 0.00 0.00 77 1017.8
20191015040022 53 355 0.0 0.0 0.00 0.00 0.00 77 1017.8
20191015034536 54 330 0.0 0.0 0.00 0.00 0.00 76 1017.6
20191015033059 54 330 0.0 0.0 0.00 0.00 0.00 77 1017.4
20191015031700 55 338 0.0 0.0 0.00 0.00 0.00 76 1017.3
20191015024533 56 292 0.0 0.0 0.00 0.00 0.00 77 1017.3
20191015023008 56 297 0.0 0.0 0.00 0.00 0.00 76 1017.0
20191015021515 56 297 0.0 0.0 0.00 0.00 0.00 76 1017.1
20191015020043 57 297 0.0 0.0 0.00 0.00 0.00 76 1017.0
20191015014525 56 304 0.0 0.0 0.00 0.00 0.00 76 1016.7
20191015013105 56 304 0.0 0.0 0.00 0.00 0.00 77 1016.3
20191015011615 56 202 0.0 0.0 0.00 0.00 0.00 74 1016.1
20191015010120 57 201 0.0 0.0 0.00 0.00 0.00 72 1016.0
20191015004512 58 201 0.0 0.0 0.00 0.00 0.00 71 1015.7
20191015003015 58 201 0.0 0.0 0.00 0.00 0.00 68 1015.8
20191015001533 59 201 0.0 0.0 0.00 0.00 0.00 66 1015.5
20191015000220 60 201 0.0 0.0 0.00 0.00 0.00 65 1015.4
20191014234634 61 201 0.0 0.0 0.00 0.00 0.00 62 1015.2
20191014233130 62 200 0.0 0.0 0.00 0.00 0.00 60 1015.2
20191014231707 63 200 0.0 0.0 0.00 0.00 0.00 59 1015.1
20191014230111 63 200 0.0 0.0 0.00 0.00 0.00 57 1014.8
20191014224551 64 200 0.0 0.0 0.00 0.00 0.00 55 1014.6
20191014223207 66 200 0.0 0.0 0.00 0.00 0.00 51 1014.5
20191014221551 69 200 0.0 0.0 0.00 0.00 0.00 45 1014.3
20191014220038 70 228 0.0 0.0 0.00 0.00 0.00 43 1014.1
20191014214620 71 186 0.0 0.0 0.00 0.00 0.00 42 1014.3
20191014211527 73 208 0.0 0.0 0.00 0.00 0.00 42 1013.9
20191014210008 73 217 0.0 0.0 0.00 0.00 0.00 42 1013.9
20191014201515 73 269 0.0 0.0 0.00 0.00 0.00 40 1013.9
20191014200048 73 277 0.0 0.0 0.00 0.00 0.00 38 1013.9
20191014194540 73 221 0.0 0.0 0.00 0.00 0.00 39 1014.1
20191014193122 73 211 0.0 0.0 0.00 0.00 0.00 39 1014.1
20191014191651 73 214 0.0 0.0 0.00 0.00 0.00 37 1014.2
20191014190243 72 360 0.0 0.0 0.00 0.00 0.00 39 1014.3
20191014184628 72 262 0.0 0.0 0.00 0.00 0.00 41 1014.3
20191014181536 72 169 0.0 0.0 0.00 0.00 0.00 43 1014.7
20191014180027 71 277 0.0 0.0 0.00 0.00 0.00 43 1015.0
20191014174512 71 279 0.0 0.0 0.00 0.00 0.00 44 1015.3
20191014173002 70 283 0.0 0.0 0.00 0.00 0.00 44 1015.6
20191014171501 70 273 0.0 0.0 0.00 0.00 0.00 43 1015.7
20191014170332 69 313 0.0 0.0 0.00 0.00 0.00 46 1016.0
20191014164723 69 302 0.0 0.0 0.00 0.00 0.00 46 1016.2
20191014163240 68 265 0.0 0.0 0.00 0.00 0.00 47 1016.4
20191014161613 68 342 0.0 0.0 0.00 0.00 0.00 51 1016.4
20191014160131 67 171 0.0 0.0 0.00 0.00 0.00 51 1016.6
20191014154709 66 329 0.0 0.0 0.00 0.00 0.00 53 1016.5
20191014153124 66 284 0.0 0.0 0.00 0.00 0.00 57 1016.6
20191014151722 65 290 0.0 0.0 0.00 0.00 0.00 59 1016.9
20191014150132 62 263 0.0 0.0 0.00 0.00 0.00 64 1017.0
20191014144609 60 248 0.0 0.0 0.00 0.00 0.00 72 1017.0
20191014143042 57 327 0.0 0.0 0.00 0.00 0.00 85 1017.1
20191014141550 55 262 0.0 0.0 0.00 0.00 0.00 95 1017.0
20191014140059 54 271 0.0 0.0 0.00 0.00 0.00 96 1017.0
20191014134544 53 279 0.0 0.0 0.00 0.00 0.00 96 1017.0
20191014133033 52 269 0.0 0.0 0.00 0.00 0.00 95 1017.0
20191014131540 51 288 0.0 0.0 0.00 0.00 0.00 95 1016.9
20191014130031 49 300 0.0 0.0 0.00 0.00 0.00 95 1016.7
20191014124552 47 306 0.0 0.0 0.00 0.00 0.00 94 1016.5
20191014123027 46 305 0.0 0.0 0.00 0.00 0.00 93 1016.4
20191014121520 46 306 0.0 0.0 0.00 0.00 0.00 93 1016.3
20191014120021 45 306 0.0 0.0 0.00 0.00 0.00 92 1016.1
20191014114517 45 305 0.0 0.0 0.00 0.00 0.00 92 1015.9
20191014113022 46 305 0.0 0.0 0.00 0.00 0.00 92 1015.7
20191014111522 46 305 0.0 0.0 0.00 0.00 0.00 92 1015.6
20191014110027 46 292 0.0 0.0 0.00 0.00 0.00 92 1015.6
20191014104503 47 292 0.0 0.0 0.00 0.00 0.00 92 1015.4
20191014103002 47 292 0.0 0.0 0.00 0.00 0.00 92 1015.4
20191014101650 47 292 0.0 0.0 0.00 0.00 0.00 91 1015.1
20191014100321 47 292 0.0 0.0 0.00 0.00 0.00 91 1014.8
20191014094735 48 296 0.0 0.0 0.00 0.00 0.00 91 1014.5
20191014093132 48 46 0.0 0.0 0.00 0.00 0.00 91 1014.1
20191014091736 48 46 0.0 0.0 0.00 0.00 0.00 91 1014.0
20191014090211 48 46 0.0 0.0 0.00 0.00 0.00 90 1014.0
20191014084722 49 46 0.0 0.0 0.00 0.00 0.00 91 1014.1
20191014083125 49 46 0.0 0.0 0.00 0.00 0.00 90 1014.0
20191014081659 50 46 0.0 0.0 0.00 0.00 0.00 90 1014.1
20191014080138 50 46 0.0 0.0 0.00 0.00 0.00 89 1013.7
20191014074635 50 46 0.0 0.0 0.00 0.00 0.00 89 1014.0
20191014073127 51 46 0.0 0.0 0.00 0.00 0.00 89 1013.8
20191014071619 51 46 0.0 0.0 0.00 0.00 0.00 89 1014.0
20191014070119 52 82 0.0 0.0 0.00 0.00 0.00 88 1014.0
20191014064643 52 82 0.0 0.0 0.00 0.00 0.00 88 1014.2